sensor_id;sensor_type;location;lat;lon;timestamp;pressure;altitude;pressure_sealevel;temperature;humidity
78309;BME280;67566;42.022;21.356;2023-06-22T00:01:50;98880.03;;;23.39;63.65
78309;BME280;67566;42.022;21.356;2023-06-22T00:04:16;98883.50;;;23.36;64.14
78309;BME280;67566;42.022;21.356;2023-06-22T00:06:41;98878.06;;;23.36;64.10
78309;BME280;67566;42.022;21.356;2023-06-22T00:09:07;98884.66;;;23.28;64.44
78309;BME280;67566;42.022;21.356;2023-06-22T00:11:33;98885.34;;;23.17;65.30
78309;BME280;67566;42.022;21.356;2023-06-22T00:13:59;98878.69;;;23.11;65.45
78309;BME280;67566;42.022;21.356;2023-06-22T00:16:25;98882.97;;;23.09;65.56
78309;BME280;67566;42.022;21.356;2023-06-22T00:18:51;98881.00;;;23.06;65.74
78309;BME280;67566;42.022;21.356;2023-06-22T00:21:16;98873.50;;;22.95;65.69
78309;BME280;67566;42.022;21.356;2023-06-22T00:23:42;98882.75;;;22.87;66.04
78309;BME280;67566;42.022;21.356;2023-06-22T00:26:13;98881.94;;;22.79;66.13
78309;BME280;67566;42.022;21.356;2023-06-22T00:28:39;98881.13;;;22.75;66.44
78309;BME280;67566;42.022;21.356;2023-06-22T00:31:05;98880.75;;;22.77;66.31
78309;BME280;67566;42.022;21.356;2023-06-22T00:33:30;98877.25;;;22.76;67.29
78309;BME280;67566;42.022;21.356;2023-06-22T00:35:57;98873.00;;;22.79;66.38
78309;BME280;67566;42.022;21.356;2023-06-22T00:38:22;98876.50;;;22.79;66.04
78309;BME280;67566;42.022;21.356;2023-06-22T00:40:48;98885.78;;;22.78;66.91
78309;BME280;67566;42.022;21.356;2023-06-22T00:43:13;98884.22;;;22.74;67.10
78309;BME280;67566;42.022;21.356;2023-06-22T00:45:39;98887.63;;;22.67;67.68
78309;BME280;67566;42.022;21.356;2023-06-22T00:48:06;98884.09;;;22.59;67.18
78309;BME280;67566;42.022;21.356;2023-06-22T00:50:33;98893.31;;;22.51;66.80
78309;BME280;67566;42.022;21.356;2023-06-22T00:53:07;98895.63;;;22.49;67.64
78309;BME280;67566;42.022;21.356;2023-06-22T00:55:35;98892.03;;;22.41;67.53
78309;BME280;67566;42.022;21.356;2023-06-22T00:58:03;98905.97;;;22.40;67.70
78309;BME280;67566;42.022;21.356;2023-06-22T01:00:31;98915.66;;;22.37;67.55
78309;BME280;67566;42.022;21.356;2023-06-22T01:02:57;98910.16;;;22.30;67.99
78309;BME280;67566;42.022;21.356;2023-06-22T01:05:23;98906.69;;;22.30;66.87
78309;BME280;67566;42.022;21.356;2023-06-22T01:11:08;98913.50;;;22.20;67.52
78309;BME280;67566;42.022;21.356;2023-06-22T01:16:17;98914.63;;;22.19;67.68
78309;BME280;67566;42.022;21.356;2023-06-22T01:18:44;98914.97;;;22.14;67.38
78309;BME280;67566;42.022;21.356;2023-06-22T01:21:16;98914.16;;;22.10;67.56
78309;BME280;67566;42.022;21.356;2023-06-22T01:28:56;98930.88;;;22.15;67.39
78309;BME280;67566;42.022;21.356;2023-06-22T01:31:27;98926.94;;;22.09;67.64
78309;BME280;67566;42.022;21.356;2023-06-22T01:33:58;98931.56;;;22.09;68.12
78309;BME280;67566;42.022;21.356;2023-06-22T01:36:25;98928.44;;;22.06;67.63
78309;BME280;67566;42.022;21.356;2023-06-22T01:38:52;98942.03;;;22.10;67.60
78309;BME280;67566;42.022;21.356;2023-06-22T01:41:20;98935.88;;;22.13;68.42
78309;BME280;67566;42.022;21.356;2023-06-22T01:43:46;98935.16;;;22.16;67.89
78309;BME280;67566;42.022;21.356;2023-06-22T01:46:12;98929.66;;;22.09;68.22
78309;BME280;67566;42.022;21.356;2023-06-22T01:48:39;98935.03;;;22.05;68.27
78309;BME280;67566;42.022;21.356;2023-06-22T01:51:05;98943.72;;;21.88;68.79
78309;BME280;67566;42.022;21.356;2023-06-22T01:53:30;98955.16;;;21.74;69.28
78309;BME280;67566;42.022;21.356;2023-06-22T01:55:56;98948.47;;;21.68;69.54
78309;BME280;67566;42.022;21.356;2023-06-22T01:58:25;98946.13;;;21.66;69.24
78309;BME280;67566;42.022;21.356;2023-06-22T02:01:20;98953.94;;;21.72;68.88
78309;BME280;67566;42.022;21.356;2023-06-22T02:03:52;98940.41;;;21.72;68.70
78309;BME280;67566;42.022;21.356;2023-06-22T02:06:24;98937.72;;;21.75;68.61
78309;BME280;67566;42.022;21.356;2023-06-22T02:08:59;98936.22;;;21.78;68.56
78309;BME280;67566;42.022;21.356;2023-06-22T02:11:27;98944.00;;;21.79;68.42
78309;BME280;67566;42.022;21.356;2023-06-22T02:13:55;98951.78;;;21.81;68.40
78309;BME280;67566;42.022;21.356;2023-06-22T02:16:22;98950.59;;;21.82;68.99
78309;BME280;67566;42.022;21.356;2023-06-22T02:18:51;98947.84;;;21.78;68.36
78309;BME280;67566;42.022;21.356;2023-06-22T02:21:20;98948.16;;;21.73;68.95
78309;BME280;67566;42.022;21.356;2023-06-22T02:23:46;98938.91;;;21.74;68.86
78309;BME280;67566;42.022;21.356;2023-06-22T02:26:12;98941.25;;;21.76;68.62
78309;BME280;67566;42.022;21.356;2023-06-22T02:28:37;98941.66;;;21.78;69.42
78309;BME280;67566;42.022;21.356;2023-06-22T02:31:03;98943.63;;;21.81;69.79
78309;BME280;67566;42.022;21.356;2023-06-22T02:33:28;98940.53;;;21.82;69.24
78309;BME280;67566;42.022;21.356;2023-06-22T02:35:54;98936.59;;;21.76;69.09
78309;BME280;67566;42.022;21.356;2023-06-22T02:38:19;98940.72;;;21.66;69.62
78309;BME280;67566;42.022;21.356;2023-06-22T02:40:46;98933.28;;;21.60;69.64
78309;BME280;67566;42.022;21.356;2023-06-22T02:43:12;98936.31;;;21.55;69.64
78309;BME280;67566;42.022;21.356;2023-06-22T02:45:37;98947.41;;;21.46;69.62
78309;BME280;67566;42.022;21.356;2023-06-22T02:48:03;98936.41;;;21.39;69.76
78309;BME280;67566;42.022;21.356;2023-06-22T02:50:28;98940.22;;;21.34;70.31
78309;BME280;67566;42.022;21.356;2023-06-22T02:52:54;98953.72;;;21.30;70.49
78309;BME280;67566;42.022;21.356;2023-06-22T02:55:19;98949.44;;;21.29;70.45
78309;BME280;67566;42.022;21.356;2023-06-22T02:57:45;98945.59;;;21.30;69.96
78309;BME280;67566;42.022;21.356;2023-06-22T03:00:12;98943.72;;;21.35;70.37
78309;BME280;67566;42.022;21.356;2023-06-22T03:02:45;98943.34;;;21.36;70.25
78309;BME280;67566;42.022;21.356;2023-06-22T03:05:11;98957.56;;;21.29;70.61
78309;BME280;67566;42.022;21.356;2023-06-22T03:07:40;98946.22;;;21.20;70.43
78309;BME280;67566;42.022;21.356;2023-06-22T03:10:09;98953.81;;;21.11;69.95
78309;BME280;67566;42.022;21.356;2023-06-22T03:12:35;98957.53;;;21.03;71.05
78309;BME280;67566;42.022;21.356;2023-06-22T03:15:00;98962.19;;;21.02;70.30
78309;BME280;67566;42.022;21.356;2023-06-22T03:17:26;98968.66;;;20.98;70.69
78309;BME280;67566;42.022;21.356;2023-06-22T03:19:51;98972.31;;;20.86;71.78
78309;BME280;67566;42.022;21.356;2023-06-22T03:22:17;98976.25;;;20.88;70.88
78309;BME280;67566;42.022;21.356;2023-06-22T03:24:42;98979.72;;;20.89;71.23
78309;BME280;67566;42.022;21.356;2023-06-22T03:27:07;98981.72;;;20.92;71.91
78309;BME280;67566;42.022;21.356;2023-06-22T03:29:33;98983.63;;;20.91;71.46
78309;BME280;67566;42.022;21.356;2023-06-22T03:31:59;98986.78;;;20.93;71.60
78309;BME280;67566;42.022;21.356;2023-06-22T03:34:24;98989.91;;;20.96;71.79
78309;BME280;67566;42.022;21.356;2023-06-22T03:36:50;98991.44;;;20.97;72.05
78309;BME280;67566;42.022;21.356;2023-06-22T03:39:16;99001.56;;;21.00;71.41
78309;BME280;67566;42.022;21.356;2023-06-22T03:41:41;98999.72;;;21.04;71.55
78309;BME280;67566;42.022;21.356;2023-06-22T03:44:07;99001.38;;;21.12;70.98
78309;BME280;67566;42.022;21.356;2023-06-22T03:46:35;99005.84;;;21.24;70.71
78309;BME280;67566;42.022;21.356;2023-06-22T03:49:01;99014.09;;;21.31;71.02
78309;BME280;67566;42.022;21.356;2023-06-22T03:51:28;99013.41;;;21.38;71.07
78309;BME280;67566;42.022;21.356;2023-06-22T03:53:53;99009.25;;;21.44;71.73
78309;BME280;67566;42.022;21.356;2023-06-22T03:56:19;99007.69;;;21.43;70.78
78309;BME280;67566;42.022;21.356;2023-06-22T03:58:46;99013.25;;;21.50;70.75
78309;BME280;67566;42.022;21.356;2023-06-22T04:01:11;99018.00;;;21.57;71.20
78309;BME280;67566;42.022;21.356;2023-06-22T04:03:38;99011.88;;;21.60;70.49
78309;BME280;67566;42.022;21.356;2023-06-22T04:06:03;99018.53;;;21.66;70.06
78309;BME280;67566;42.022;21.356;2023-06-22T04:08:30;99016.69;;;21.74;70.19
78309;BME280;67566;42.022;21.356;2023-06-22T04:10:55;99017.19;;;21.79;70.10
78309;BME280;67566;42.022;21.356;2023-06-22T04:13:21;99021.41;;;21.77;70.23
78309;BME280;67566;42.022;21.356;2023-06-22T04:15:47;99015.97;;;21.77;70.15
78309;BME280;67566;42.022;21.356;2023-06-22T04:18:12;99019.00;;;21.72;70.60
78309;BME280;67566;42.022;21.356;2023-06-22T04:20:39;99019.16;;;21.82;70.68
78309;BME280;67566;42.022;21.356;2023-06-22T04:23:04;99020.03;;;21.90;70.13
78309;BME280;67566;42.022;21.356;2023-06-22T04:25:30;99021.72;;;21.98;70.42
78309;BME280;67566;42.022;21.356;2023-06-22T04:27:56;99028.78;;;22.06;70.74
78309;BME280;67566;42.022;21.356;2023-06-22T04:30:21;99018.41;;;22.12;70.13
78309;BME280;67566;42.022;21.356;2023-06-22T04:32:47;99011.59;;;22.25;70.09
78309;BME280;67566;42.022;21.356;2023-06-22T04:35:22;99016.03;;;22.37;69.58
78309;BME280;67566;42.022;21.356;2023-06-22T04:37:48;99013.09;;;22.50;69.63
78309;BME280;67566;42.022;21.356;2023-06-22T04:40:15;99015.13;;;22.60;69.04
78309;BME280;67566;42.022;21.356;2023-06-22T04:42:41;99014.88;;;22.72;69.48
78309;BME280;67566;42.022;21.356;2023-06-22T04:45:17;99020.06;;;22.85;68.84
78309;BME280;67566;42.022;21.356;2023-06-22T04:47:42;99025.22;;;22.97;68.51
78309;BME280;67566;42.022;21.356;2023-06-22T04:50:11;99023.03;;;23.10;67.45
78309;BME280;67566;42.022;21.356;2023-06-22T04:52:37;99027.78;;;23.20;68.18
78309;BME280;67566;42.022;21.356;2023-06-22T04:55:02;99032.16;;;23.32;67.64
78309;BME280;67566;42.022;21.356;2023-06-22T04:57:29;99029.13;;;23.41;67.09
78309;BME280;67566;42.022;21.356;2023-06-22T04:59:58;99023.38;;;23.49;67.34
78309;BME280;67566;42.022;21.356;2023-06-22T05:02:36;99028.47;;;23.58;67.25
78309;BME280;67566;42.022;21.356;2023-06-22T05:05:02;99027.78;;;23.68;67.00
78309;BME280;67566;42.022;21.356;2023-06-22T05:07:33;99027.81;;;23.72;66.09
78309;BME280;67566;42.022;21.356;2023-06-22T05:09:59;99029.47;;;23.84;66.90
78309;BME280;67566;42.022;21.356;2023-06-22T05:12:24;99018.28;;;23.96;66.52
78309;BME280;67566;42.022;21.356;2023-06-22T05:14:50;99017.19;;;24.08;66.17
78309;BME280;67566;42.022;21.356;2023-06-22T05:17:15;99025.00;;;24.20;64.94
78309;BME280;67566;42.022;21.356;2023-06-22T05:19:53;99023.88;;;24.32;65.38
78309;BME280;67566;42.022;21.356;2023-06-22T05:22:19;99030.16;;;24.43;64.22
78309;BME280;67566;42.022;21.356;2023-06-22T05:24:45;99031.00;;;24.55;63.62
78309;BME280;67566;42.022;21.356;2023-06-22T05:27:10;99032.97;;;24.61;63.69
78309;BME280;67566;42.022;21.356;2023-06-22T05:29:37;99036.47;;;24.69;63.56
78309;BME280;67566;42.022;21.356;2023-06-22T05:32:03;99031.84;;;24.77;63.32
78309;BME280;67566;42.022;21.356;2023-06-22T05:34:28;99027.56;;;24.79;63.49
78309;BME280;67566;42.022;21.356;2023-06-22T05:36:54;99031.09;;;24.87;62.73
78309;BME280;67566;42.022;21.356;2023-06-22T05:39:19;99030.34;;;24.97;63.28
78309;BME280;67566;42.022;21.356;2023-06-22T05:41:45;99028.00;;;25.06;62.25
78309;BME280;67566;42.022;21.356;2023-06-22T05:44:11;99034.22;;;25.07;62.47
78309;BME280;67566;42.022;21.356;2023-06-22T05:46:40;99046.31;;;25.17;62.10
78309;BME280;67566;42.022;21.356;2023-06-22T05:49:09;99050.66;;;25.25;61.46
78309;BME280;67566;42.022;21.356;2023-06-22T05:51:35;99049.44;;;25.22;60.71
78309;BME280;67566;42.022;21.356;2023-06-22T05:54:00;99047.09;;;25.21;60.62
78309;BME280;67566;42.022;21.356;2023-06-22T05:56:26;99038.94;;;25.28;61.35
78309;BME280;67566;42.022;21.356;2023-06-22T05:58:51;99042.47;;;25.43;60.41
78309;BME280;67566;42.022;21.356;2023-06-22T06:01:17;99040.91;;;25.53;60.43
78309;BME280;67566;42.022;21.356;2023-06-22T06:03:42;99031.53;;;25.61;60.80
78309;BME280;67566;42.022;21.356;2023-06-22T06:06:09;99040.09;;;25.63;60.02
78309;BME280;67566;42.022;21.356;2023-06-22T06:08:36;99033.88;;;25.66;59.93
78309;BME280;67566;42.022;21.356;2023-06-22T06:11:02;99026.06;;;25.82;59.83
78309;BME280;67566;42.022;21.356;2023-06-22T06:13:28;99024.47;;;26.03;59.44
78309;BME280;67566;42.022;21.356;2023-06-22T06:15:53;99019.78;;;26.11;58.63
78309;BME280;67566;42.022;21.356;2023-06-22T06:18:22;99011.56;;;26.22;58.69
78309;BME280;67566;42.022;21.356;2023-06-22T06:20:47;99014.22;;;26.36;57.93
78309;BME280;67566;42.022;21.356;2023-06-22T06:23:13;99024.28;;;26.53;58.16
78309;BME280;67566;42.022;21.356;2023-06-22T06:25:38;99019.16;;;26.70;57.79
78309;BME280;67566;42.022;21.356;2023-06-22T06:28:04;99020.31;;;26.76;56.84
78309;BME280;67566;42.022;21.356;2023-06-22T06:30:30;99022.97;;;26.87;57.33
78309;BME280;67566;42.022;21.356;2023-06-22T06:32:58;99026.53;;;26.77;56.47
78309;BME280;67566;42.022;21.356;2023-06-22T06:35:23;99025.31;;;26.85;56.88
78309;BME280;67566;42.022;21.356;2023-06-22T06:37:50;99008.41;;;27.04;56.66
78309;BME280;67566;42.022;21.356;2023-06-22T06:40:17;99013.72;;;27.22;56.14
78309;BME280;67566;42.022;21.356;2023-06-22T06:42:47;99012.09;;;27.36;55.97
78309;BME280;67566;42.022;21.356;2023-06-22T06:45:22;99007.69;;;27.49;55.51
78309;BME280;67566;42.022;21.356;2023-06-22T06:47:51;99005.69;;;27.53;54.94
78309;BME280;67566;42.022;21.356;2023-06-22T06:50:17;98999.25;;;27.71;54.65
78309;BME280;67566;42.022;21.356;2023-06-22T06:52:43;99004.94;;;27.87;55.12
78309;BME280;67566;42.022;21.356;2023-06-22T06:55:09;99009.13;;;28.02;54.67
78309;BME280;67566;42.022;21.356;2023-06-22T06:57:39;99010.91;;;28.16;53.70
78309;BME280;67566;42.022;21.356;2023-06-22T07:00:10;99009.59;;;28.28;53.24
78309;BME280;67566;42.022;21.356;2023-06-22T07:02:43;99010.28;;;28.36;53.13
78309;BME280;67566;42.022;21.356;2023-06-22T07:05:11;99005.09;;;28.45;53.06
78309;BME280;67566;42.022;21.356;2023-06-22T07:07:37;99002.59;;;28.58;52.85
78309;BME280;67566;42.022;21.356;2023-06-22T07:10:02;99005.69;;;28.60;52.47
78309;BME280;67566;42.022;21.356;2023-06-22T07:12:28;99013.50;;;28.61;51.56
78309;BME280;67566;42.022;21.356;2023-06-22T07:15:04;99007.16;;;28.68;51.99
78309;BME280;67566;42.022;21.356;2023-06-22T07:17:30;99017.53;;;28.80;52.00
78309;BME280;67566;42.022;21.356;2023-06-22T07:19:56;99011.13;;;28.91;52.07
78309;BME280;67566;42.022;21.356;2023-06-22T07:22:21;99013.78;;;28.98;51.62
78309;BME280;67566;42.022;21.356;2023-06-22T07:24:47;99021.75;;;29.12;52.03
78309;BME280;67566;42.022;21.356;2023-06-22T07:27:12;99021.16;;;29.28;51.98
78309;BME280;67566;42.022;21.356;2023-06-22T07:29:38;99019.72;;;29.44;51.27
78309;BME280;67566;42.022;21.356;2023-06-22T07:32:06;99008.91;;;29.56;50.89
78309;BME280;67566;42.022;21.356;2023-06-22T07:34:31;99013.84;;;29.65;49.75
78309;BME280;67566;42.022;21.356;2023-06-22T07:36:57;99011.91;;;29.66;49.68
78309;BME280;67566;42.022;21.356;2023-06-22T07:39:23;99013.06;;;29.65;49.21
78309;BME280;67566;42.022;21.356;2023-06-22T07:41:51;99009.22;;;29.62;49.56
78309;BME280;67566;42.022;21.356;2023-06-22T07:44:17;99007.38;;;29.55;49.19
78309;BME280;67566;42.022;21.356;2023-06-22T07:46:42;99004.16;;;29.61;48.95
78309;BME280;67566;42.022;21.356;2023-06-22T07:49:08;99006.63;;;29.75;49.27
78309;BME280;67566;42.022;21.356;2023-06-22T07:51:34;99001.63;;;29.93;49.20
78309;BME280;67566;42.022;21.356;2023-06-22T07:54:00;99000.97;;;30.06;48.16
78309;BME280;67566;42.022;21.356;2023-06-22T07:56:25;98993.94;;;30.05;48.89
78309;BME280;67566;42.022;21.356;2023-06-22T07:58:51;98997.81;;;30.07;48.08
78309;BME280;67566;42.022;21.356;2023-06-22T08:01:18;98992.88;;;29.99;48.25
78309;BME280;67566;42.022;21.356;2023-06-22T08:03:50;98991.44;;;30.10;48.81
78309;BME280;67566;42.022;21.356;2023-06-22T08:06:16;98992.63;;;30.29;48.48
78309;BME280;67566;42.022;21.356;2023-06-22T08:08:41;98987.16;;;30.49;48.45
78309;BME280;67566;42.022;21.356;2023-06-22T08:11:08;98983.38;;;30.60;47.57
78309;BME280;67566;42.022;21.356;2023-06-22T08:13:34;98991.56;;;30.63;47.36
78309;BME280;67566;42.022;21.356;2023-06-22T08:15:59;98977.25;;;30.52;46.48
78309;BME280;67566;42.022;21.356;2023-06-22T08:18:25;98976.59;;;30.64;48.23
78309;BME280;67566;42.022;21.356;2023-06-22T08:20:50;98974.72;;;30.78;47.61
78309;BME280;67566;42.022;21.356;2023-06-22T08:23:16;98979.88;;;30.92;47.54
78309;BME280;67566;42.022;21.356;2023-06-22T08:25:42;98975.72;;;31.04;46.65
78309;BME280;67566;42.022;21.356;2023-06-22T08:28:07;98969.59;;;31.13;46.75
78309;BME280;67566;42.022;21.356;2023-06-22T08:30:35;98965.19;;;31.15;46.16
78309;BME280;67566;42.022;21.356;2023-06-22T08:33:01;98968.81;;;30.96;45.94
78309;BME280;67566;42.022;21.356;2023-06-22T08:35:26;98967.97;;;30.99;45.51
78309;BME280;67566;42.022;21.356;2023-06-22T08:37:52;98965.53;;;31.17;46.55
78309;BME280;67566;42.022;21.356;2023-06-22T08:40:20;98960.22;;;31.27;46.24
78309;BME280;67566;42.022;21.356;2023-06-22T08:42:46;98969.38;;;31.36;46.26
78309;BME280;67566;42.022;21.356;2023-06-22T08:45:12;98964.31;;;31.51;47.34
78309;BME280;67566;42.022;21.356;2023-06-22T08:47:38;98959.28;;;31.62;45.84
78309;BME280;67566;42.022;21.356;2023-06-22T08:50:05;98951.75;;;31.79;45.89
78309;BME280;67566;42.022;21.356;2023-06-22T08:52:31;98940.53;;;31.87;46.18
78309;BME280;67566;42.022;21.356;2023-06-22T08:54:57;98942.22;;;31.97;46.05
78309;BME280;67566;42.022;21.356;2023-06-22T08:57:26;98937.63;;;32.07;44.62
78309;BME280;67566;42.022;21.356;2023-06-22T08:59:52;98936.53;;;32.17;45.10
78309;BME280;67566;42.022;21.356;2023-06-22T09:02:18;98937.97;;;32.22;43.83
78309;BME280;67566;42.022;21.356;2023-06-22T09:04:45;98937.00;;;32.28;44.35
78309;BME280;67566;42.022;21.356;2023-06-22T09:07:11;98935.13;;;32.38;44.15
78309;BME280;67566;42.022;21.356;2023-06-22T09:09:37;98928.28;;;32.43;43.92
78309;BME280;67566;42.022;21.356;2023-06-22T09:12:14;98928.28;;;32.55;43.98
78309;BME280;67566;42.022;21.356;2023-06-22T09:14:40;98922.66;;;32.59;43.25
78309;BME280;67566;42.022;21.356;2023-06-22T09:17:05;98922.91;;;32.65;43.05
78309;BME280;67566;42.022;21.356;2023-06-22T09:19:31;98919.03;;;32.75;43.03
78309;BME280;67566;42.022;21.356;2023-06-22T09:21:57;98920.56;;;32.76;42.40
78309;BME280;67566;42.022;21.356;2023-06-22T09:24:22;98925.72;;;32.87;42.05
78309;BME280;67566;42.022;21.356;2023-06-22T09:26:48;98915.47;;;32.87;42.02
78309;BME280;67566;42.022;21.356;2023-06-22T09:29:13;98926.75;;;32.80;39.37
78309;BME280;67566;42.022;21.356;2023-06-22T09:31:39;98920.56;;;32.89;40.43
78309;BME280;67566;42.022;21.356;2023-06-22T09:34:04;98925.72;;;32.87;39.64
78309;BME280;67566;42.022;21.356;2023-06-22T09:36:30;98914.72;;;32.74;39.38
78309;BME280;67566;42.022;21.356;2023-06-22T09:38:55;98912.50;;;32.82;40.31
78309;BME280;67566;42.022;21.356;2023-06-22T09:41:24;98909.16;;;32.87;39.79
78309;BME280;67566;42.022;21.356;2023-06-22T09:43:50;98911.59;;;32.85;39.49
78309;BME280;67566;42.022;21.356;2023-06-22T09:46:16;98904.03;;;32.50;38.31
78309;BME280;67566;42.022;21.356;2023-06-22T09:48:42;98901.03;;;32.45;38.37
78309;BME280;67566;42.022;21.356;2023-06-22T09:51:07;98892.00;;;32.18;39.27
78309;BME280;67566;42.022;21.356;2023-06-22T09:53:33;98893.13;;;32.47;39.69
78309;BME280;67566;42.022;21.356;2023-06-22T09:56:00;98900.28;;;32.70;39.98
78309;BME280;67566;42.022;21.356;2023-06-22T09:58:26;98889.41;;;32.88;40.45
78309;BME280;67566;42.022;21.356;2023-06-22T10:00:51;98892.78;;;33.05;39.72
78309;BME280;67566;42.022;21.356;2023-06-22T10:03:18;98896.44;;;33.15;38.94
78309;BME280;67566;42.022;21.356;2023-06-22T10:05:43;98896.06;;;33.13;37.70
78309;BME280;67566;42.022;21.356;2023-06-22T10:08:09;98898.81;;;33.26;37.55
78309;BME280;67566;42.022;21.356;2023-06-22T10:10:35;98891.25;;;33.39;36.74
78309;BME280;67566;42.022;21.356;2023-06-22T10:13:09;98886.09;;;33.28;36.45
78309;BME280;67566;42.022;21.356;2023-06-22T10:15:38;98880.59;;;33.28;36.67
78309;BME280;67566;42.022;21.356;2023-06-22T10:18:04;98880.19;;;33.39;36.47
78309;BME280;67566;42.022;21.356;2023-06-22T10:20:30;98886.28;;;33.34;36.55
78309;BME280;67566;42.022;21.356;2023-06-22T10:22:55;98889.31;;;33.27;36.67
78309;BME280;67566;42.022;21.356;2023-06-22T10:25:21;98884.50;;;33.40;36.02
78309;BME280;67566;42.022;21.356;2023-06-22T10:27:47;98879.63;;;33.44;35.90
78309;BME280;67566;42.022;21.356;2023-06-22T10:30:13;98876.03;;;33.57;35.65
78309;BME280;67566;42.022;21.356;2023-06-22T10:32:39;98874.50;;;33.78;35.10
78309;BME280;67566;42.022;21.356;2023-06-22T10:35:05;98867.50;;;33.95;35.52
78309;BME280;67566;42.022;21.356;2023-06-22T10:37:31;98863.78;;;34.11;35.57
78309;BME280;67566;42.022;21.356;2023-06-22T10:39:56;98858.41;;;34.17;35.04
78309;BME280;67566;42.022;21.356;2023-06-22T10:42:22;98855.78;;;34.13;34.63
78309;BME280;67566;42.022;21.356;2023-06-22T10:44:48;98844.66;;;34.35;34.87
78309;BME280;67566;42.022;21.356;2023-06-22T10:47:13;98839.34;;;34.50;34.52
78309;BME280;67566;42.022;21.356;2023-06-22T10:49:39;98846.25;;;34.64;35.24
78309;BME280;67566;42.022;21.356;2023-06-22T10:52:06;98838.75;;;34.74;34.88
78309;BME280;67566;42.022;21.356;2023-06-22T10:54:33;98833.56;;;34.85;35.12
78309;BME280;67566;42.022;21.356;2023-06-22T10:56:59;98836.47;;;34.82;33.72
78309;BME280;67566;42.022;21.356;2023-06-22T10:59:25;98836.03;;;34.83;33.56
78309;BME280;67566;42.022;21.356;2023-06-22T11:01:51;98843.72;;;34.88;33.59
78309;BME280;67566;42.022;21.356;2023-06-22T11:04:17;98827.56;;;34.96;33.64
78309;BME280;67566;42.022;21.356;2023-06-22T11:06:43;98841.38;;;35.05;33.26
78309;BME280;67566;42.022;21.356;2023-06-22T11:09:09;98834.47;;;34.91;33.58
78309;BME280;67566;42.022;21.356;2023-06-22T11:11:34;98829.09;;;35.06;33.70
78309;BME280;67566;42.022;21.356;2023-06-22T11:14:00;98826.47;;;35.12;32.14
78309;BME280;67566;42.022;21.356;2023-06-22T11:16:25;98829.72;;;34.92;30.81
78309;BME280;67566;42.022;21.356;2023-06-22T11:18:51;98828.78;;;34.76;31.60
78309;BME280;67566;42.022;21.356;2023-06-22T11:21:16;98823.22;;;34.67;31.45
78309;BME280;67566;42.022;21.356;2023-06-22T11:23:42;98827.25;;;34.75;32.10
78309;BME280;67566;42.022;21.356;2023-06-22T11:26:08;98823.72;;;34.75;31.58
78309;BME280;67566;42.022;21.356;2023-06-22T11:28:33;98818.59;;;34.64;31.82
78309;BME280;67566;42.022;21.356;2023-06-22T11:30:59;98821.25;;;34.77;32.16
78309;BME280;67566;42.022;21.356;2023-06-22T11:33:24;98811.88;;;34.74;32.82
78309;BME280;67566;42.022;21.356;2023-06-22T11:35:50;98819.22;;;34.68;30.63
78309;BME280;67566;42.022;21.356;2023-06-22T11:38:15;98814.75;;;34.61;30.98
78309;BME280;67566;42.022;21.356;2023-06-22T11:40:41;98815.56;;;34.71;31.18
78309;BME280;67566;42.022;21.356;2023-06-22T11:43:06;98820.19;;;34.84;31.33
78309;BME280;67566;42.022;21.356;2023-06-22T11:45:32;98810.66;;;34.94;29.56
78309;BME280;67566;42.022;21.356;2023-06-22T11:47:57;98803.88;;;34.86;30.39
78309;BME280;67566;42.022;21.356;2023-06-22T11:50:22;98812.94;;;34.77;30.34
78309;BME280;67566;42.022;21.356;2023-06-22T11:52:48;98804.81;;;34.83;30.99
78309;BME280;67566;42.022;21.356;2023-06-22T11:55:16;98802.19;;;35.07;30.61
78309;BME280;67566;42.022;21.356;2023-06-22T11:57:56;98806.00;;;35.28;30.95
78309;BME280;67566;42.022;21.356;2023-06-22T12:00:24;98804.34;;;35.30;31.10
78309;BME280;67566;42.022;21.356;2023-06-22T12:02:51;98807.38;;;35.51;31.16
78309;BME280;67566;42.022;21.356;2023-06-22T12:05:20;98806.41;;;35.63;31.22
78309;BME280;67566;42.022;21.356;2023-06-22T12:07:46;98806.41;;;35.72;31.09
78309;BME280;67566;42.022;21.356;2023-06-22T12:10:11;98802.06;;;35.81;29.67
78309;BME280;67566;42.022;21.356;2023-06-22T12:12:37;98802.59;;;35.94;29.67
78309;BME280;67566;42.022;21.356;2023-06-22T12:15:03;98792.88;;;35.99;29.14
78309;BME280;67566;42.022;21.356;2023-06-22T12:17:29;98801.78;;;36.03;29.05
78309;BME280;67566;42.022;21.356;2023-06-22T12:19:55;98792.25;;;36.04;29.05
78309;BME280;67566;42.022;21.356;2023-06-22T12:22:21;98794.38;;;36.09;29.86
78309;BME280;67566;42.022;21.356;2023-06-22T12:24:46;98796.19;;;36.21;30.05
78309;BME280;67566;42.022;21.356;2023-06-22T12:27:12;98797.41;;;36.20;28.93
78309;BME280;67566;42.022;21.356;2023-06-22T12:29:37;98784.91;;;35.91;25.46
78309;BME280;67566;42.022;21.356;2023-06-22T12:32:03;98784.94;;;35.82;25.73
78309;BME280;67566;42.022;21.356;2023-06-22T12:34:29;98779.75;;;35.75;25.81
78309;BME280;67566;42.022;21.356;2023-06-22T12:36:54;98779.09;;;35.80;25.22
78309;BME280;67566;42.022;21.356;2023-06-22T12:39:20;98778.69;;;36.06;25.95
78309;BME280;67566;42.022;21.356;2023-06-22T12:41:45;98771.72;;;36.10;25.60
78309;BME280;67566;42.022;21.356;2023-06-22T12:44:11;98772.59;;;36.17;25.68
78309;BME280;67566;42.022;21.356;2023-06-22T12:46:37;98765.16;;;35.99;26.35
78309;BME280;67566;42.022;21.356;2023-06-22T12:49:06;98771.25;;;36.12;27.64
78309;BME280;67566;42.022;21.356;2023-06-22T12:51:32;98759.50;;;36.26;27.81
78309;BME280;67566;42.022;21.356;2023-06-22T12:53:57;98756.91;;;36.23;26.49
78309;BME280;67566;42.022;21.356;2023-06-22T12:56:25;98755.34;;;36.22;28.26
78309;BME280;67566;42.022;21.356;2023-06-22T12:58:50;98748.06;;;36.00;25.26